Time;durP1;ratioP1;P1;durP2;ratioP2;P2;SDS_P1;SDS_P2;PMS_P1;PMS_P2;Temp;Humidity;BMP_temperature;BMP_pressure;BME280_temperature;BME280_humidity;BME280_pressure;Samples;Min_cycle;Max_cycle;Signal;HPM_P1;HPM_P2
2021/12/16 00:09:43;;;;;;;20.03;13.33;;;;;;;4.83;81.14;100425.50;5113205;28;20216;-71
2021/12/16 00:29:20;;;;;;;14.30;12.17;;;;;;;4.70;80.88;100431.03;5112445;28;20225;-70
2021/12/16 00:31:58;;;;;;;12.97;11.67;;;;;;;4.58;81.45;100437.38;5113184;28;20191;-70
2021/12/16 00:34:30;;;;;;;14.13;12.30;;;;;;;4.61;82.15;100426.59;5112299;28;20198;-71
2021/12/16 00:36:58;;;;;;;20.07;12.33;;;;;;;4.57;81.76;100427.81;5113211;28;20259;-71
2021/12/16 00:39:28;;;;;;;16.07;11.73;;;;;;;4.51;82.26;100430.16;5112290;28;20186;-71
2021/12/16 00:42:01;;;;;;;15.00;12.97;;;;;;;4.44;82.66;100429.88;5112325;28;20191;-71
2021/12/16 00:45:06;;;;;;;16.73;13.10;;;;;;;4.54;81.93;100430.72;5112317;28;20689;-71
2021/12/16 00:47:46;;;;;;;16.10;12.50;;;;;;;4.57;82.22;100430.44;5111910;28;20222;-71
2021/12/16 00:54:09;;;;;;;15.13;12.37;;;;;;;4.50;81.70;100439.84;5112344;28;20226;-71
2021/12/16 00:55:59;;;;;;;14.67;12.70;;;;;;;4.48;81.32;100422.53;5112295;28;20561;-70
2021/12/16 00:58:31;;;;;;;15.67;12.90;;;;;;;4.44;81.55;100424.59;5115600;28;20194;-70
2021/12/16 01:01:07;;;;;;;14.87;12.70;;;;;;;4.39;81.77;100424.19;5116409;28;20206;-70
2021/12/16 01:03:41;;;;;;;14.07;11.93;;;;;;;4.40;82.48;100431.09;5115601;28;20703;-70
2021/12/16 01:34:05;;;;;;;18.53;13.57;;;;;;;4.10;83.43;100404.84;5115404;28;20561;-69
2021/12/16 01:37:07;;;;;;;15.87;12.90;;;;;;;4.04;83.76;100389.59;5115445;28;20182;-69
2021/12/16 01:42:35;;;;;;;19.03;14.37;;;;;;;3.99;83.96;100391.78;5109576;28;20702;-69
2021/12/16 01:47:58;;;;;;;19.53;14.07;;;;;;;4.05;83.19;100396.50;5115420;28;20185;-70
2021/12/16 01:50:32;;;;;;;19.47;14.17;;;;;;;4.06;82.91;100392.94;5114748;28;20226;-69
2021/12/16 01:53:16;;;;;;;17.03;13.53;;;;;;;4.02;83.19;100391.53;5114558;28;20182;-69
2021/12/16 01:55:50;;;;;;;19.37;14.40;;;;;;;4.03;82.93;100397.59;5114985;28;20182;-69
2021/12/16 01:58:21;;;;;;;15.30;12.57;;;;;;;4.00;82.48;100398.72;5115062;28;20182;-69
2021/12/16 02:00:57;;;;;;;16.13;12.93;;;;;;;4.00;82.75;100393.44;5114670;28;20244;-69
2021/12/16 02:03:37;;;;;;;14.37;12.20;;;;;;;4.03;82.49;100393.19;5114471;28;20259;-69
2021/12/16 02:06:13;;;;;;;17.87;12.73;;;;;;;4.13;81.76;100388.78;5114306;28;20189;-70
2021/12/16 02:08:40;;;;;;;18.57;13.13;;;;;;;4.05;82.20;100393.88;5115131;28;20511;-69
2021/12/16 02:11:30;;;;;;;17.67;13.93;;;;;;;4.11;82.15;100390.75;5114417;28;20186;-69
2021/12/16 02:28:09;;;;;;;19.90;13.13;;;;;;;3.90;82.50;100382.09;5114246;28;20392;-70
2021/12/16 02:33:49;;;;;;;15.80;12.13;;;;;;;3.86;82.17;100387.72;5114917;28;20417;-69
2021/12/16 02:36:31;;;;;;;17.87;12.33;;;;;;;3.92;81.88;100387.22;5113697;28;20179;-69
2021/12/16 02:39:02;;;;;;;18.53;12.70;;;;;;;3.96;82.79;100381.53;5114229;28;20186;-69
2021/12/16 02:41:29;;;;;;;17.60;13.40;;;;;;;3.96;82.75;100381.53;5114453;28;20421;-69
2021/12/16 02:44:22;;;;;;;15.63;12.33;;;;;;;4.06;81.53;100389.47;5113891;28;20271;-69
2021/12/16 02:49:39;;;;;;;19.50;12.97;;;;;;;3.91;82.50;100382.91;5113894;28;20730;-70
2021/12/16 02:52:07;;;;;;;18.53;13.30;;;;;;;3.89;83.31;100390.91;5114451;28;20190;-70
2021/12/16 02:54:35;;;;;;;20.23;14.07;;;;;;;3.78;83.44;100385.75;5113289;28;20198;-70
2021/12/16 02:57:02;;;;;;;18.40;12.90;;;;;;;3.82;83.71;100389.78;5113956;28;20187;-71
2021/12/16 02:59:30;;;;;;;20.87;13.50;;;;;;;3.65;84.34;100385.16;5114072;28;20186;-70
2021/12/16 03:02:05;;;;;;;18.97;13.07;;;;;;;3.67;84.36;100391.09;5113748;28;20436;-70
2021/12/16 03:04:33;;;;;;;20.03;13.63;;;;;;;3.64;83.95;100391.34;5111483;28;20588;-71
2021/12/16 03:07:01;;;;;;;21.03;14.20;;;;;;;3.62;83.84;100393.28;5111320;28;20428;-72
2021/12/16 03:15:26;;;;;;;19.03;13.63;;;;;;;3.33;84.69;100392.28;5076726;28;20436;-71
2021/12/16 03:17:59;;;;;;;19.47;13.67;;;;;;;3.29;84.38;100388.25;5113734;28;20185;-70
2021/12/16 03:20:35;;;;;;;21.63;13.97;;;;;;;3.31;85.12;100390.75;5112981;28;20186;-71
2021/12/16 03:23:19;;;;;;;20.17;13.30;;;;;;;3.36;85.04;100397.28;5113683;28;20550;-70
2021/12/16 03:26:00;;;;;;;22.13;13.67;;;;;;;3.34;84.06;100406.22;5112831;28;20464;-70
2021/12/16 03:28:52;;;;;;;19.73;13.23;;;;;;;3.23;84.84;100396.63;5113809;28;20432;-70
2021/12/16 03:31:40;;;;;;;19.57;13.70;;;;;;;3.22;85.21;100402.00;5112679;28;20939;-70
2021/12/16 03:37:18;;;;;;;20.03;14.27;;;;;;;3.12;85.78;100399.31;5086497;28;20439;-69
2021/12/16 03:39:57;;;;;;;20.67;14.40;;;;;;;3.07;86.14;100401.47;5113743;28;20185;-69
2021/12/16 03:42:28;;;;;;;23.37;13.87;;;;;;;3.23;85.18;100407.13;5113107;28;20485;-69
2021/12/16 03:45:06;;;;;;;21.70;14.47;;;;;;;3.20;85.04;100401.31;5113003;28;20464;-69
2021/12/16 03:47:38;;;;;;;21.37;14.03;;;;;;;3.15;84.75;100406.91;5112484;28;20503;-69
2021/12/16 03:50:10;;;;;;;19.17;13.73;;;;;;;3.14;84.79;100407.06;5112893;28;20464;-69
2021/12/16 03:52:38;;;;;;;17.10;12.97;;;;;;;3.04;85.74;100409.63;5113781;28;20243;-69
2021/12/16 03:55:06;;;;;;;20.30;14.13;;;;;;;3.05;85.65;100403.41;5112363;28;20281;-69
2021/12/16 03:57:32;;;;;;;23.07;14.53;;;;;;;3.05;85.03;100400.78;5113450;28;20436;-69
2021/12/16 04:00:01;;;;;;;23.40;14.70;;;;;;;3.02;86.12;100401.03;5112666;28;20444;-69
2021/12/16 04:02:34;;;;;;;19.40;14.33;;;;;;;2.99;85.95;100409.13;5112685;28;20424;-70
2021/12/16 04:05:01;;;;;;;21.90;14.80;;;;;;;3.02;85.84;100408.88;5112539;28;20754;-69
2021/12/16 04:07:31;;;;;;;21.23;14.60;;;;;;;3.03;85.68;100402.69;5112465;28;20938;-69
2021/12/16 04:09:58;;;;;;;20.77;13.80;;;;;;;3.02;85.65;100401.03;5113148;28;20776;-69
2021/12/16 04:12:27;;;;;;;20.00;13.30;;;;;;;2.93;85.93;100412.28;5112289;28;20428;-70
2021/12/16 04:14:57;;;;;;;23.43;14.80;;;;;;;2.98;85.37;100412.72;5112659;28;20440;-70
2021/12/16 04:17:29;;;;;;;19.03;13.00;;;;;;;2.99;85.94;100406.50;5112726;28;20505;-70
2021/12/16 04:19:56;;;;;;;19.77;13.80;;;;;;;2.97;85.45;100405.81;5112825;28;20418;-69
2021/12/16 04:22:29;;;;;;;20.73;14.23;;;;;;;2.99;85.66;100405.69;5113162;28;20436;-69
2021/12/16 04:24:57;;;;;;;19.53;14.17;;;;;;;2.92;84.85;100397.50;5112293;28;20492;-69
2021/12/16 04:27:23;;;;;;;20.37;14.20;;;;;;;2.93;85.93;100393.91;5111899;28;20489;-69
2021/12/16 04:29:51;;;;;;;22.17;14.13;;;;;;;2.85;85.22;100400.72;5112357;28;20437;-69
2021/12/16 04:32:18;;;;;;;20.90;14.27;;;;;;;2.81;86.01;100400.16;5114709;28;20439;-68
2021/12/16 04:34:46;;;;;;;18.47;12.90;;;;;;;2.78;85.74;100400.41;5116145;28;20440;-68
2021/12/16 04:37:14;;;;;;;17.77;13.50;;;;;;;2.76;86.11;100399.69;5116937;28;20432;-68
2021/12/16 04:39:43;;;;;;;19.93;12.33;;;;;;;2.79;86.59;100396.84;5116081;28;20428;-68
2021/12/16 04:42:12;;;;;;;17.90;12.07;;;;;;;2.82;86.49;100393.13;5116073;28;20493;-70
2021/12/16 04:44:41;;;;;;;16.77;12.77;;;;;;;2.83;85.65;100392.16;5116599;28;20521;-69
2021/12/16 04:47:09;;;;;;;16.17;12.13;;;;;;;2.83;86.19;100398.25;5115669;28;20450;-69
2021/12/16 04:49:37;;;;;;;17.20;12.00;;;;;;;2.83;85.87;100403.50;5116056;28;20463;-70
2021/12/16 04:52:08;;;;;;;16.33;13.00;;;;;;;2.83;85.95;100408.75;5115258;28;20959;-70
2021/12/16 04:54:35;;;;;;;19.20;13.60;;;;;;;2.81;86.51;100394.91;5116352;28;20484;-70
2021/12/16 04:57:02;;;;;;;15.97;12.37;;;;;;;2.72;86.62;100400.91;5115379;28;20879;-70
2021/12/16 04:59:30;;;;;;;15.07;11.37;;;;;;;2.75;86.54;100403.28;5115378;28;20436;-70
2021/12/16 05:02:00;;;;;;;16.43;11.67;;;;;;;2.76;85.82;100393.63;5115077;28;20802;-69
2021/12/16 05:04:27;;;;;;;17.00;11.87;;;;;;;2.65;86.03;100404.97;5115113;28;20472;-70
2021/12/16 05:06:54;;;;;;;18.33;12.17;;;;;;;2.68;86.58;100409.97;5115338;28;20439;-70
2021/12/16 05:10:02;;;;;;;17.00;11.80;;;;;;;2.65;86.98;100420.72;5115454;28;20493;-69
2021/12/16 05:12:33;;;;;;;19.30;12.50;;;;;;;2.70;86.32;100420.34;5115732;28;20779;-70
2021/12/16 05:15:00;;;;;;;17.53;12.53;;;;;;;2.63;86.91;100427.88;5115377;28;20440;-69
2021/12/16 05:17:31;;;;;;;18.83;12.97;;;;;;;2.65;87.24;100420.72;5115343;28;20805;-71
2021/12/16 05:20:03;;;;;;;19.60;12.37;;;;;;;2.68;86.73;100424.88;5115887;28;20439;-69
2021/12/16 05:25:25;;;;;;;16.87;12.37;;;;;;;2.71;86.17;100419.38;5115249;28;20807;-68
2021/12/16 05:27:52;;;;;;;14.70;11.67;;;;;;;2.74;86.49;100427.84;5115373;28;20538;-66
2021/12/16 05:30:19;;;;;;;17.67;12.00;;;;;;;2.70;86.32;100423.78;5115312;28;20497;-84
2021/12/16 05:32:46;;;;;;;15.47;12.77;;;;;;;2.67;86.98;100424.06;5115429;28;20501;-83
2021/12/16 05:35:16;;;;;;;18.50;11.90;;;;;;;2.66;87.13;100426.81;5114785;28;20863;-83
2021/12/16 05:37:44;;;;;;;16.20;12.27;;;;;;;2.73;86.57;100433.22;5115395;28;20444;-88
2021/12/16 05:40:14;;;;;;;16.83;11.50;;;;;;;2.71;86.10;100425.47;5114950;28;20448;-79
2021/12/16 05:42:43;;;;;;;17.00;12.20;;;;;;;2.64;86.09;100434.78;5114215;28;20864;-79
2021/12/16 05:45:12;;;;;;;18.27;13.50;;;;;;;2.66;86.85;100437.28;5114768;28;20939;-80
2021/12/16 05:47:39;;;;;;;22.60;15.03;;;;;;;2.71;87.09;100441.22;5115593;28;20432;-80
2021/12/16 05:50:08;;;;;;;24.03;15.10;;;;;;;2.54;86.92;100433.88;5114371;28;20468;-79
2021/12/16 05:52:35;;;;;;;17.43;11.97;;;;;;;2.57;87.33;100433.59;5115525;28;20464;-79
2021/12/16 05:55:01;;;;;;;16.30;12.67;;;;;;;2.62;86.31;100435.88;5114707;28;20440;-79
2021/12/16 05:57:28;;;;;;;15.53;12.07;;;;;;;2.55;87.36;100435.53;5114377;28;20935;-78
2021/12/16 05:59:56;;;;;;;15.17;11.27;;;;;;;2.56;87.07;100431.94;5115204;28;20485;-79
2021/12/16 06:02:23;;;;;;;22.43;12.40;;;;;;;2.58;86.52;100439.69;5114874;28;20521;-79
2021/12/16 06:04:50;;;;;;;22.77;13.83;;;;;;;2.69;86.45;100437.06;5112855;28;20503;-77
2021/12/16 06:07:17;;;;;;;22.53;14.47;;;;;;;2.66;85.84;100440.72;5113042;28;20497;-78
2021/12/16 06:09:45;;;;;;;22.30;14.63;;;;;;;2.66;86.01;100443.34;5112960;28;20820;-78
2021/12/16 06:12:12;;;;;;;18.53;12.50;;;;;;;2.75;85.72;100445.25;5112879;28;20447;-78
2021/12/16 06:14:54;;;;;;;24.47;12.17;;;;;;;2.82;85.38;100453.47;5112322;28;21158;-78
2021/12/16 06:28:36;;;;;;;15.63;11.90;;;;;;;2.93;84.42;100466.53;5114585;28;20396;-79
2021/12/16 06:31:03;;;;;;;19.67;12.83;;;;;;;2.97;84.41;100458.31;5115170;28;20468;-79
2021/12/16 06:33:31;;;;;;;17.80;12.13;;;;;;;2.93;84.35;100456.88;5108817;28;20476;-78
2021/12/16 06:35:58;;;;;;;14.50;12.07;;;;;;;2.96;85.31;100456.63;5113790;28;20436;-80
2021/12/16 06:38:25;;;;;;;19.67;13.97;;;;;;;3.05;84.84;100450.63;5114132;28;20486;-79
2021/12/16 06:40:53;;;;;;;16.60;12.43;;;;;;;3.13;83.85;100458.72;5114212;28;20436;-78
2021/12/16 06:43:21;;;;;;;22.07;13.90;;;;;;;3.08;84.12;100458.28;5113710;28;20468;-78
2021/12/16 06:45:51;;;;;;;21.83;14.83;;;;;;;3.23;84.17;100449.13;5113414;28;20503;-79
2021/12/16 06:48:22;;;;;;;18.23;14.77;;;;;;;3.34;83.38;100454.31;5113350;28;20441;-79
2021/12/16 06:50:54;;;;;;;21.63;13.90;;;;;;;3.53;83.11;100456.25;5113698;28;20830;-78
2021/12/16 06:53:27;;;;;;;17.40;12.47;;;;;;;3.69;82.28;100460.13;5113356;28;21010;-78
2021/12/16 06:56:02;;;;;;;17.53;12.40;;;;;;;3.85;81.96;100457.81;5113301;28;20443;-79
2021/12/16 06:58:35;;;;;;;16.50;12.43;;;;;;;4.10;80.39;100470.56;5113320;28;20954;-79
2021/12/16 07:01:12;;;;;;;13.20;11.07;;;;;;;4.38;79.23;100472.47;5114165;28;20550;-79
2021/12/16 07:03:48;;;;;;;15.70;11.23;;;;;;;4.46;78.84;100470.00;5113418;28;20186;-79
2021/12/16 07:06:19;;;;;;;18.73;12.00;;;;;;;4.59;78.26;100470.63;5113136;28;20210;-80
2021/12/16 07:08:46;;;;;;;17.23;13.33;;;;;;;4.77;77.50;100470.78;5113083;28;20182;-80
2021/12/16 07:11:13;;;;;;;18.23;12.47;;;;;;;5.12;76.65;100471.13;5113403;28;20555;-79
2021/12/16 07:13:44;;;;;;;15.20;12.60;;;;;;;5.27;75.60;100475.84;5113391;28;20432;-79
2021/12/16 07:16:13;;;;;;;27.33;15.30;;;;;;;5.45;74.63;100481.25;5128647;28;20460;-80
2021/12/16 07:18:39;;;;;;;27.10;17.30;;;;;;;5.62;74.46;100473.47;5133215;28;20195;-82
2021/12/16 07:21:08;;;;;;;13.93;12.53;;;;;;;5.79;73.69;100477.19;5134296;28;20190;-81
2021/12/16 07:23:36;;;;;;;14.90;12.97;;;;;;;6.08;72.63;100479.78;5132752;28;20190;-83
2021/12/16 07:26:03;;;;;;;17.07;12.80;;;;;;;6.38;75.70;100477.75;5114230;28;20770;-67
2021/12/16 07:28:30;;;;;;;13.60;10.93;;;;;;;6.85;73.10;100475.81;5112837;28;20187;-67
2021/12/16 07:30:57;;;;;;;15.53;12.10;;;;;;;7.10;71.15;100490.97;5111957;28;20191;-66
2021/12/16 07:33:24;;;;;;;13.20;8.53;;;;;;;7.23;76.75;100449.16;5112517;28;20282;-67
2021/12/16 07:35:52;;;;;;;15.23;12.27;;;;;;;7.57;69.05;100487.94;5112885;28;20255;-67
2021/12/16 07:38:20;;;;;;;21.77;14.17;;;;;;;8.06;69.44;100483.81;5112480;28;20202;-67
2021/12/16 07:40:50;;;;;;;23.30;14.07;;;;;;;8.28;68.39;100481.50;5112702;28;20270;-67
2021/12/16 07:43:27;;;;;;;14.70;11.93;;;;;;;8.63;64.14;100491.97;5112474;28;20187;-67
2021/12/16 07:45:56;;;;;;;18.17;13.60;;;;;;;8.68;64.29;100486.16;5112410;28;20728;-67
2021/12/16 07:48:27;;;;;;;14.87;12.37;;;;;;;8.45;64.13;100477.97;5112691;28;20190;-67
2021/12/16 07:50:57;;;;;;;10.83;9.50;;;;;;;8.36;64.28;100486.84;5113105;28;20267;-66
2021/12/16 07:53:24;;;;;;;11.77;10.53;;;;;;;8.69;62.91;100482.53;5112343;28;20194;-73
2021/12/16 07:55:52;;;;;;;66.00;15.10;;;;;;;8.58;63.09;100472.25;5104616;28;20206;-73
2021/12/16 07:58:20;;;;;;;13.10;11.37;;;;;;;8.35;64.06;100465.84;5112020;28;20247;-72
2021/12/16 08:00:48;;;;;;;20.03;12.93;;;;;;;8.10;63.96;100469.31;5105021;28;20287;-72
2021/12/16 08:03:17;;;;;;;15.63;10.30;;;;;;;8.05;64.68;100467.13;5112427;28;20190;-72
2021/12/16 08:05:47;;;;;;;12.23;10.40;;;;;;;8.09;64.42;100475.59;5113555;28;20231;-71
2021/12/16 08:08:15;;;;;;;11.50;10.00;;;;;;;7.97;64.54;100471.53;5117003;28;20192;-73
2021/12/16 08:10:42;;;;;;;13.13;10.80;;;;;;;7.78;65.77;100477.00;5116774;28;20233;-71
2021/12/16 08:13:10;;;;;;;19.57;10.40;;;;;;;7.57;65.63;100473.88;5116659;28;20266;-75
2021/12/16 08:15:38;;;;;;;21.50;9.70;;;;;;;7.56;65.83;100466.94;5116345;28;20190;-72
2021/12/16 08:18:04;;;;;;;11.37;9.60;;;;;;;8.04;65.76;100473.41;5116544;28;20245;-75
2021/12/16 08:20:32;;;;;;;12.43;9.30;;;;;;;8.12;64.04;100470.81;5116649;28;20198;-74
2021/12/16 08:22:59;;;;;;;11.77;10.57;;;;;;;8.34;64.65;100469.47;5116413;28;20277;-74
2021/12/16 08:25:29;;;;;;;10.77;9.73;;;;;;;8.35;63.55;100468.47;5116289;28;20275;-74
2021/12/16 08:27:57;;;;;;;21.47;12.57;;;;;;;8.43;63.38;100466.72;5117068;28;20646;-74
2021/12/16 08:30:29;;;;;;;47.00;32.80;;;;;;;8.40;63.57;100463.53;5116068;28;20190;-73
2021/12/16 08:32:59;;;;;;;12.87;10.00;;;;;;;7.97;64.51;100466.25;5116479;28;20235;-73
2021/12/16 08:35:27;;;;;;;13.10;10.83;;;;;;;7.70;66.37;100464.56;5116521;28;20204;-72
2021/12/16 08:37:54;;;;;;;11.93;10.77;;;;;;;7.74;66.88;100465.09;5116079;28;20186;-76
2021/12/16 08:40:24;;;;;;;15.37;13.77;;;;;;;7.34;67.48;100440.97;5116065;28;20548;-73
2021/12/16 08:42:52;;;;;;;13.43;10.97;;;;;;;7.40;68.91;100457.06;5115713;28;20681;-69
2021/12/16 08:45:23;;;;;;;12.10;10.80;;;;;;;7.56;67.36;100462.47;5115658;28;20661;-69
2021/12/16 08:47:52;;;;;;;15.17;13.60;;;;;;;7.67;67.38;100456.13;5116035;28;20218;-68
2021/12/16 08:50:22;;;;;;;20.10;11.47;;;;;;;8.22;73.00;100439.81;5116067;28;20224;-70
2021/12/16 08:52:49;;;;;;;19.73;10.60;;;;;;;8.43;67.01;100442.03;5116038;28;20194;-69
2021/12/16 08:55:16;;;;;;;12.73;10.37;;;;;;;8.71;64.74;100448.78;5115772;28;20195;-69
2021/12/16 08:57:44;;;;;;;15.50;12.50;;;;;;;8.58;64.96;100445.75;5116464;28;20195;-69
2021/12/16 09:00:14;;;;;;;20.13;12.33;;;;;;;8.63;64.64;100457.53;5115653;28;20191;-69
2021/12/16 09:02:41;;;;;;;14.33;12.07;;;;;;;8.84;64.92;100449.13;5115961;28;20247;-69
2021/12/16 09:05:10;;;;;;;16.50;11.93;;;;;;;8.77;65.31;100443.66;5115372;28;20218;-69
2021/12/16 09:07:38;;;;;;;12.73;10.90;;;;;;;9.18;66.69;100447.22;5115073;28;20730;-69
2021/12/16 09:10:07;;;;;;;12.90;10.90;;;;;;;8.77;62.46;100450.75;5115505;28;20205;-74
2021/12/16 09:12:53;;;;;;;16.93;11.93;;;;;;;8.09;65.18;100449.94;5115235;28;20606;-73
2021/12/16 09:15:23;;;;;;;12.80;10.10;;;;;;;7.69;66.40;100441.75;5115118;28;20183;-73
2021/12/16 09:17:50;;;;;;;14.63;10.33;;;;;;;7.57;66.81;100431.56;5114954;28;20270;-74
2021/12/16 09:20:18;;;;;;;17.30;11.90;;;;;;;7.39;68.31;100436.06;5114998;28;20255;-74
2021/12/16 09:22:45;;;;;;;17.57;11.33;;;;;;;7.63;67.99;100426.50;5115249;28;20190;-73
2021/12/16 09:25:12;;;;;;;18.57;13.50;;;;;;;7.78;68.27;100426.75;5115084;28;20217;-72
2021/12/16 09:27:41;;;;;;;37.57;16.23;;;;;;;7.87;67.49;100428.47;5115333;28;20191;-72
2021/12/16 09:30:10;;;;;;;14.63;13.10;;;;;;;8.08;66.58;100432.41;5115434;28;20187;-71
2021/12/16 09:32:37;;;;;;;12.83;11.03;;;;;;;8.16;67.08;100418.38;5115566;28;20243;-72
2021/12/16 09:35:05;;;;;;;15.13;12.47;;;;;;;8.08;66.62;100426.31;5114702;28;20665;-72
2021/12/16 09:37:33;;;;;;;10.97;9.97;;;;;;;7.99;66.53;100422.78;5114804;28;20194;-70
2021/12/16 09:40:01;;;;;;;13.07;9.53;;;;;;;8.12;66.87;100417.03;5112553;28;20191;-70
2021/12/16 09:42:28;;;;;;;10.30;9.40;;;;;;;7.96;67.26;100416.97;5094475;28;20671;-70
2021/12/16 09:44:55;;;;;;;11.37;9.80;;;;;;;7.81;67.44;100410.59;5094529;28;20203;-68
2021/12/16 09:47:23;;;;;;;12.57;10.57;;;;;;;7.87;67.41;100413.44;5094911;28;20547;-69
2021/12/16 09:49:50;;;;;;;25.10;10.77;;;;;;;8.08;67.37;100405.94;5094628;28;20305;-69
2021/12/16 09:52:18;;;;;;;13.30;9.53;;;;;;;8.05;66.92;100405.44;5093834;28;20237;-69
2021/12/16 09:54:47;;;;;;;9.07;8.17;;;;;;;8.03;66.47;100404.75;5094469;28;20197;-69
2021/12/16 09:57:17;;;;;;;11.83;9.97;;;;;;;8.18;66.45;100406.69;5094396;28;20191;-76
2021/12/16 09:59:44;;;;;;;20.73;9.27;;;;;;;8.21;66.31;100405.56;5094394;28;20191;-76
2021/12/16 10:02:14;;;;;;;10.80;9.80;;;;;;;8.39;65.23;100403.63;5093715;28;20258;-76
2021/12/16 10:04:42;;;;;;;26.43;11.07;;;;;;;8.35;65.77;100392.56;5094657;28;20183;-76
2021/12/16 10:07:13;;;;;;;10.73;9.63;;;;;;;8.37;66.54;100395.03;5094015;28;20227;-74
2021/12/16 10:09:40;;;;;;;10.90;9.60;;;;;;;8.51;65.91;100394.41;5086789;28;20195;-75
2021/12/16 10:12:13;;;;;;;15.77;10.80;;;;;;;8.65;66.11;100383.19;5093502;28;20686;-75
2021/12/16 10:17:34;;;;;;;16.17;11.13;;;;;;;8.77;64.51;100384.53;5073080;28;20195;-75
2021/12/16 10:20:16;;;;;;;11.00;9.63;;;;;;;8.70;64.74;100375.63;5094366;28;20187;-74
2021/12/16 10:22:44;;;;;;;9.23;8.37;;;;;;;8.73;64.69;100377.91;5093860;28;20187;-75
2021/12/16 10:25:25;;;;;;;9.93;8.70;;;;;;;8.75;65.23;100378.59;5093205;28;20706;-78
2021/12/16 10:28:05;;;;;;;18.87;9.83;;;;;;;8.83;65.01;100374.13;5093533;28;20575;-79
2021/12/16 10:30:52;;;;;;;9.77;8.50;;;;;;;8.72;64.81;100363.03;5092827;28;20184;-77
2021/12/16 10:33:25;;;;;;;8.80;7.60;;;;;;;8.67;63.78;100365.34;5093951;28;20190;-77
2021/12/16 10:36:08;;;;;;;11.23;8.03;;;;;;;8.70;63.78;100351.78;5093157;28;20251;-78
2021/12/16 10:38:37;;;;;;;8.63;7.97;;;;;;;8.70;64.39;100352.59;5093057;28;20236;-76
2021/12/16 10:41:06;;;;;;;10.93;9.03;;;;;;;8.77;64.11;100348.28;5104925;28;20271;-76
2021/12/16 10:43:40;;;;;;;10.27;9.40;;;;;;;8.84;64.00;100345.81;5113497;28;20662;-77
2021/12/16 10:46:09;;;;;;;10.23;9.13;;;;;;;8.82;64.89;100337.22;5114094;28;20206;-75
2021/12/16 10:48:39;;;;;;;8.93;8.07;;;;;;;8.90;64.04;100345.19;5113222;28;20186;-75
2021/12/16 10:51:28;;;;;;;8.70;7.90;;;;;;;8.88;63.47;100348.00;5112323;28;20230;-75
2021/12/16 10:54:14;;;;;;;9.43;8.47;;;;;;;8.74;63.67;100343.31;5106977;28;20198;-74
2021/12/16 10:56:54;;;;;;;8.10;7.47;;;;;;;8.64;63.18;100350.59;5113019;28;20247;-75
2021/12/16 10:59:25;;;;;;;10.67;7.10;;;;;;;8.71;63.67;100348.97;5111030;28;20803;-75
2021/12/16 11:02:02;;;;;;;9.60;8.17;;;;;;;8.94;64.66;100343.84;5111115;28;20178;-75
2021/12/16 11:04:37;;;;;;;9.90;8.97;;;;;;;9.04;63.08;100347.16;5110874;28;20182;-75
2021/12/16 11:07:09;;;;;;;12.17;8.90;;;;;;;9.22;62.40;100342.50;5110905;28;20233;-75
2021/12/16 11:09:44;;;;;;;16.83;12.07;;;;;;;8.82;61.93;100345.97;5111706;28;20187;-76
2021/12/16 11:12:18;;;;;;;32.37;20.30;;;;;;;9.13;62.58;100348.81;5111896;28;20239;-77
2021/12/16 11:14:50;;;;;;;14.50;9.10;;;;;;;8.95;61.76;100340.22;5112949;28;20186;-76
2021/12/16 11:17:20;;;;;;;13.87;9.17;;;;;;;9.12;62.48;100334.75;5113339;28;20255;-76
2021/12/16 11:19:57;;;;;;;9.67;8.40;;;;;;;8.91;62.58;100334.38;5113189;28;20733;-74
2021/12/16 11:22:28;;;;;;;21.43;11.40;;;;;;;8.96;62.65;100313.56;5112562;28;20537;-74
2021/12/16 11:24:55;;;;;;;9.80;8.20;;;;;;;8.88;62.42;100316.19;5113278;28;20186;-74
2021/12/16 11:27:28;;;;;;;14.07;11.40;;;;;;;9.02;63.56;100317.34;5112743;28;20277;-74
2021/12/16 11:29:58;;;;;;;13.50;10.23;;;;;;;9.10;61.75;100312.03;5113727;28;20236;-74
2021/12/16 11:32:43;;;;;;;12.97;6.33;;;;;;;9.03;59.88;100326.97;5112672;28;20199;-73
2021/12/16 11:35:47;;;;;;;8.53;6.40;;;;;;;8.82;59.62;100324.78;5112837;28;20219;-72
2021/12/16 11:38:20;;;;;;;8.07;7.27;;;;;;;8.81;60.44;100327.59;5049878;28;20191;-72
2021/12/16 11:40:54;;;;;;;7.50;6.93;;;;;;;8.89;60.30;100330.25;5094677;28;20195;-73
2021/12/16 11:43:45;;;;;;;6.70;6.23;;;;;;;8.87;60.19;100332.25;5092463;28;20179;-73
2021/12/16 11:46:22;;;;;;;6.23;5.40;;;;;;;8.74;59.60;100319.47;5092571;28;20260;-73
2021/12/16 11:48:51;;;;;;;5.40;5.10;;;;;;;9.01;59.34;100320.97;5092192;28;20191;-74
2021/12/16 11:51:21;;;;;;;9.37;5.60;;;;;;;9.19;60.67;100317.16;5092936;28;20277;-74
2021/12/16 11:53:52;;;;;;;7.53;5.47;;;;;;;9.22;58.42;100334.56;5092987;28;20183;-73
2021/12/16 11:56:20;;;;;;;5.73;5.30;;;;;;;9.21;58.74;100338.22;5092160;28;20203;-73
2021/12/16 11:58:48;;;;;;;5.73;5.20;;;;;;;9.24;58.35;100319.31;5091821;28;20195;-74
2021/12/16 12:01:20;;;;;;;6.10;5.00;;;;;;;9.16;58.54;100324.63;5092936;28;20259;-74
2021/12/16 12:03:47;;;;;;;7.50;6.90;;;;;;;9.03;59.75;100314.53;5092570;28;20244;-75
2021/12/16 12:06:26;;;;;;;14.17;6.63;;;;;;;9.01;59.90;100315.69;5092105;28;20276;-73
2021/12/16 12:08:55;;;;;;;8.97;7.27;;;;;;;9.14;60.01;100319.50;5094543;28;20233;-74
2021/12/16 12:11:26;;;;;;;10.73;7.63;;;;;;;9.07;59.65;100320.34;5111912;28;20190;-72
2021/12/16 12:13:57;;;;;;;6.47;5.87;;;;;;;8.99;60.24;100323.00;5109569;28;20194;-72
2021/12/16 12:16:30;;;;;;;6.27;5.53;;;;;;;8.89;60.60;100312.53;5100498;28;20210;-71
2021/12/16 12:19:00;;;;;;;7.20;6.70;;;;;;;9.06;59.07;100318.66;5092979;28;20237;-71
2021/12/16 12:21:32;;;;;;;10.80;9.33;;;;;;;8.92;59.81;100311.38;5091613;28;20826;-72
2021/12/16 12:24:02;;;;;;;10.20;9.27;;;;;;;8.94;59.64;100312.06;5091749;28;20234;-72
2021/12/16 12:26:33;;;;;;;8.57;7.37;;;;;;;8.94;59.74;100304.94;5091518;28;20722;-72
2021/12/16 12:29:04;;;;;;;7.57;6.23;;;;;;;8.88;59.11;100299.47;5091711;28;20183;-70
2021/12/16 12:31:36;;;;;;;21.13;6.73;;;;;;;8.83;59.68;100312.38;5091602;28;20195;-71
2021/12/16 12:34:03;;;;;;;8.77;7.53;;;;;;;8.98;59.09;100310.72;5091784;28;20738;-71
2021/12/16 12:36:30;;;;;;;10.20;8.30;;;;;;;8.69;60.46;100310.38;5091709;28;20261;-70
2021/12/16 12:38:57;;;;;;;14.50;9.23;;;;;;;8.67;60.44;100309.72;5091761;28;20253;-72
2021/12/16 12:41:24;;;;;;;7.57;6.37;;;;;;;8.68;59.95;100314.00;5105060;28;20255;-70
2021/12/16 12:43:51;;;;;;;7.43;6.73;;;;;;;8.44;59.66;100285.69;5112172;28;20627;-71
2021/12/16 12:46:19;;;;;;;4.80;4.50;;;;;;;8.43;60.03;100314.97;5111693;28;20214;-70
2021/12/16 12:48:49;;;;;;;5.00;4.60;;;;;;;8.32;60.70;100312.63;5112093;28;20195;-70
2021/12/16 12:51:17;;;;;;;5.10;4.80;;;;;;;8.23;61.14;100321.53;5112277;28;20223;-71
2021/12/16 12:53:49;;;;;;;5.07;4.77;;;;;;;8.24;60.62;100317.88;5114234;28;20187;-71
2021/12/16 12:56:19;;;;;;;5.53;4.97;;;;;;;8.31;60.73;100316.25;5116219;28;20558;-72
2021/12/16 12:58:52;;;;;;;7.23;6.60;;;;;;;8.27;61.05;100314.94;5115231;28;20673;-71
2021/12/16 13:01:34;;;;;;;15.03;11.87;;;;;;;8.20;60.95;100308.56;5116341;28;20255;-71
2021/12/16 13:04:06;;;;;;;14.07;10.63;;;;;;;8.13;61.67;100297.00;5115814;28;20187;-70
2021/12/16 13:06:48;;;;;;;5.73;5.33;;;;;;;8.05;61.84;100310.19;5116181;28;20206;-72
2021/12/16 13:09:24;;;;;;;5.50;4.93;;;;;;;8.06;62.43;100317.16;5096407;28;20191;-72
2021/12/16 13:11:51;;;;;;;5.83;5.33;;;;;;;7.84;62.27;100312.44;5093328;28;20191;-81
2021/12/16 13:14:22;;;;;;;14.40;6.03;;;;;;;7.71;62.56;100312.84;5096930;28;20202;-79
2021/12/16 13:17:14;;;;;;;9.27;8.33;;;;;;;7.71;63.52;100306.72;5115290;28;20629;-78
2021/12/16 13:28:34;;;;;;;5.63;5.23;;;;;;;7.63;62.90;100285.56;5060436;28;20278;-79
2021/12/16 13:31:05;;;;;;;7.73;6.93;;;;;;;7.74;63.46;100295.84;5093204;28;20325;-77
2021/12/16 13:33:39;;;;;;;8.03;7.37;;;;;;;7.60;63.53;100301.72;5114977;28;20649;-80
2021/12/16 13:36:16;;;;;;;7.27;6.07;;;;;;;7.56;63.93;100300.38;5098687;28;20197;-76
2021/12/16 13:38:51;;;;;;;10.43;7.83;;;;;;;7.67;63.95;100310.72;5088163;28;20195;-78